createdAt,value
2023-10-11T00:00:46.607Z,19.10
2023-10-11T00:03:35.972Z,16.70
2023-10-11T00:06:07.623Z,18.90
2023-10-11T00:08:42.271Z,20.10
2023-10-11T00:11:11.003Z,18.80
2023-10-11T00:13:39.424Z,17.90
2023-10-11T00:16:09.012Z,15.30
2023-10-11T00:18:41.416Z,18.70
2023-10-11T00:21:14.108Z,17.90
2023-10-11T00:23:43.584Z,17.50
2023-10-11T00:26:12.363Z,18.80
2023-10-11T00:28:40.723Z,15.20
2023-10-11T00:31:17.165Z,18.50
2023-10-11T00:33:45.423Z,17.20
2023-10-11T00:36:13.455Z,18.60
2023-10-11T00:38:45.256Z,16.00
2023-10-11T00:41:20.898Z,16.20
2023-10-11T00:43:57.309Z,19.30
2023-10-11T00:46:28.065Z,18.70
2023-10-11T00:48:58.522Z,16.70
2023-10-11T00:51:32.913Z,16.40
2023-10-11T00:54:02.029Z,16.30
2023-10-11T00:56:33.596Z,18.60
2023-10-11T00:59:04.815Z,17.90
2023-10-11T01:01:34.738Z,16.30
2023-10-11T01:04:03.018Z,13.40
2023-10-11T01:06:31.241Z,15.70
2023-10-11T01:09:00.731Z,16.70
2023-10-11T01:11:29.580Z,15.80
2023-10-11T01:13:57.371Z,15.70
2023-10-11T01:16:27.613Z,16.60
2023-10-11T01:18:55.641Z,16.20
2023-10-11T01:25:01.150Z,16.90
2023-10-11T01:27:30.853Z,14.00
2023-10-11T01:30:00.303Z,16.70
2023-10-11T01:32:26.926Z,17.40
2023-10-11T01:34:53.928Z,16.50
2023-10-11T01:37:20.331Z,17.90
2023-10-11T01:39:46.924Z,17.20
2023-10-11T01:42:13.376Z,17.00
2023-10-11T01:44:40.183Z,18.00
2023-10-11T01:47:06.943Z,15.80
2023-10-11T01:49:39.940Z,16.40
2023-10-11T01:52:07.352Z,16.70
2023-10-11T01:54:35.012Z,14.30
2023-10-11T01:57:02.415Z,18.30
2023-10-11T01:59:28.886Z,17.30
2023-10-11T02:02:03.848Z,17.90
2023-10-11T02:04:30.894Z,16.60
2023-10-11T02:06:59.685Z,17.80
2023-10-11T02:09:26.267Z,15.90
2023-10-11T02:11:53.104Z,16.20
2023-10-11T02:14:20.025Z,19.00
2023-10-11T02:16:46.499Z,18.90
2023-10-11T02:19:16.119Z,19.50
2023-10-11T02:21:45.795Z,20.30
2023-10-11T02:24:15.920Z,19.60
2023-10-11T02:26:49.871Z,18.50
2023-10-11T02:29:20.800Z,20.10
2023-10-11T02:31:51.618Z,19.20
2023-10-11T02:36:55.896Z,16.60
2023-10-11T02:39:22.524Z,19.20
2023-10-11T02:41:58.160Z,18.80
2023-10-11T02:44:27.637Z,21.10
2023-10-11T02:46:54.400Z,17.90
2023-10-11T02:49:20.891Z,18.90
2023-10-11T02:51:56.972Z,18.20
2023-10-11T02:54:35.034Z,18.80
2023-10-11T02:57:06.422Z,19.70
2023-10-11T02:59:33.720Z,20.70
2023-10-11T03:02:00.299Z,19.00
2023-10-11T03:04:49.952Z,19.00
2023-10-11T03:07:21.826Z,21.20
2023-10-11T03:09:48.936Z,21.00
2023-10-11T03:12:39.161Z,60.40
2023-10-11T03:15:12.225Z,22.90
2023-10-11T03:17:42.756Z,20.40
2023-10-11T03:20:29.619Z,18.80
2023-10-11T03:23:00.402Z,17.90
2023-10-11T03:25:30.948Z,20.90
2023-10-11T03:27:57.982Z,18.60
2023-10-11T03:30:24.907Z,17.70
2023-10-11T03:32:51.600Z,21.00
2023-10-11T03:35:19.627Z,18.00
2023-10-11T03:38:06.939Z,18.70
2023-10-11T03:40:50.604Z,20.60
2023-10-11T03:43:19.725Z,22.10
2023-10-11T03:45:50.307Z,21.70
2023-10-11T03:48:28.569Z,24.60
2023-10-11T03:50:58.038Z,23.30
2023-10-11T03:53:25.115Z,18.40
2023-10-11T03:55:53.763Z,19.10
2023-10-11T03:58:33.298Z,21.20
2023-10-11T04:01:35.506Z,20.60
2023-10-11T04:04:01.964Z,16.50
2023-10-11T04:06:28.804Z,17.60
2023-10-11T04:09:03.126Z,17.50
2023-10-11T04:11:39.339Z,18.60
2023-10-11T04:14:12.794Z,18.60
2023-10-11T04:16:39.237Z,17.60
2023-10-11T04:19:08.639Z,18.20
2023-10-11T04:21:54.948Z,19.00
2023-10-11T04:24:21.500Z,18.70
2023-10-11T04:27:17.221Z,20.70
2023-10-11T04:29:44.820Z,23.00
2023-10-11T04:32:14.582Z,20.80
2023-10-11T04:34:48.618Z,18.50
2023-10-11T04:37:27.973Z,18.90
2023-10-11T04:39:57.365Z,19.10
2023-10-11T04:42:30.154Z,17.40
2023-10-11T04:44:57.405Z,17.70
2023-10-11T04:47:24.535Z,21.20
2023-10-11T04:49:52.707Z,33.80
2023-10-11T04:52:34.982Z,24.40
2023-10-11T04:55:12.625Z,19.60
2023-10-11T04:58:01.723Z,15.60
2023-10-11T05:00:31.695Z,14.50
2023-10-11T05:03:03.523Z,13.00
2023-10-11T05:05:30.101Z,13.70
2023-10-11T05:08:05.746Z,13.50
2023-10-11T05:10:44.029Z,13.60
2023-10-11T05:13:14.174Z,13.20
2023-10-11T05:15:43.793Z,16.80
2023-10-11T05:18:10.365Z,14.20
2023-10-11T05:20:42.562Z,12.80
2023-10-11T05:23:12.482Z,12.90
2023-10-11T05:25:57.079Z,13.10
2023-10-11T05:28:23.511Z,14.20
2023-10-11T05:31:08.746Z,12.60
2023-10-11T05:33:56.263Z,12.00
2023-10-11T05:36:49.067Z,12.60
2023-10-11T05:39:34.452Z,13.70
2023-10-11T05:42:19.486Z,12.70
2023-10-11T05:45:04.584Z,11.20
2023-10-11T05:47:49.890Z,11.10
2023-10-11T05:50:35.439Z,10.90
2023-10-11T05:53:02.049Z,11.30
2023-10-11T05:55:29.313Z,12.50
2023-10-11T05:57:55.710Z,12.60
2023-10-11T06:00:26.531Z,11.00
2023-10-11T06:02:53.606Z,13.40
2023-10-11T06:05:24.050Z,11.70
2023-10-11T06:08:01.460Z,10.30
2023-10-11T06:10:32.895Z,10.00
2023-10-11T06:12:59.616Z,11.00
2023-10-11T06:15:26.139Z,11.00
2023-10-11T06:17:55.580Z,9.70
2023-10-11T06:20:28.531Z,9.40
2023-10-11T06:22:55.334Z,8.80
2023-10-11T06:25:51.324Z,9.20
2023-10-11T06:28:18.726Z,8.60
2023-10-11T06:30:48.366Z,8.60
2023-10-11T06:33:15.176Z,8.90
2023-10-11T06:35:45.666Z,7.70
2023-10-11T06:38:13.221Z,8.00
2023-10-11T06:40:40.470Z,7.30
2023-10-11T06:43:07.678Z,7.60
2023-10-11T06:45:34.296Z,7.00
2023-10-11T06:48:07.405Z,7.10
2023-10-11T06:50:36.559Z,6.40
2023-10-11T06:53:08.163Z,6.50
2023-10-11T06:55:41.325Z,6.80
2023-10-11T06:58:16.420Z,6.70
2023-10-11T07:00:49.009Z,5.80
2023-10-11T07:03:27.519Z,5.40
2023-10-11T07:06:12.138Z,6.90
2023-10-11T07:08:49.682Z,5.90
2023-10-11T07:11:41.776Z,5.80
2023-10-11T07:14:15.049Z,5.90
2023-10-11T07:16:45.191Z,5.60
2023-10-11T07:19:12.190Z,5.70
2023-10-11T07:21:47.824Z,5.90
2023-10-11T07:24:32.164Z,5.30
2023-10-11T07:27:08.940Z,5.80
2023-10-11T07:29:44.994Z,5.30
2023-10-11T07:32:15.851Z,6.20
2023-10-11T07:34:42.426Z,6.10
2023-10-11T07:37:12.442Z,5.90
2023-10-11T07:39:41.652Z,6.30
2023-10-11T07:42:09.472Z,6.20
2023-10-11T07:44:39.692Z,6.70
2023-10-11T07:47:16.038Z,5.50
2023-10-11T07:49:43.113Z,5.60
2023-10-11T07:52:09.990Z,6.10
2023-10-11T07:54:39.984Z,6.20
2023-10-11T07:57:15.106Z,6.50
2023-10-11T07:59:42.454Z,5.50
2023-10-11T08:02:09.777Z,5.50
2023-10-11T08:04:47.713Z,6.30
2023-10-11T08:07:17.511Z,6.40
2023-10-11T08:09:47.471Z,6.80
2023-10-11T08:12:15.416Z,6.20
2023-10-11T08:14:54.257Z,5.30
2023-10-11T08:17:21.735Z,5.80
2023-10-11T08:19:49.369Z,5.60
2023-10-11T08:22:16.499Z,6.00
2023-10-11T08:24:49.773Z,6.10
2023-10-11T08:27:28.866Z,6.30
2023-10-11T08:30:08.248Z,5.90
2023-10-11T08:32:38.622Z,5.70
2023-10-11T08:35:07.066Z,5.30
2023-10-11T08:37:33.985Z,6.10
2023-10-11T08:40:02.320Z,5.50
2023-10-11T08:42:31.429Z,5.80
2023-10-11T08:45:01.847Z,6.10
2023-10-11T08:49:57.045Z,6.20
2023-10-11T08:52:28.604Z,6.10
2023-10-11T08:54:58.407Z,6.90
2023-10-11T08:57:32.290Z,5.50
2023-10-11T08:59:59.402Z,5.50
2023-10-11T09:02:34.369Z,4.50
2023-10-11T09:05:08.555Z,5.20
2023-10-11T09:07:45.836Z,4.90
2023-10-11T09:10:24.382Z,4.80
2023-10-11T09:12:56.593Z,5.30
2023-10-11T09:15:43.880Z,5.80
2023-10-11T09:18:13.503Z,5.50
2023-10-11T09:20:43.330Z,4.80
2023-10-11T09:23:12.501Z,5.30
2023-10-11T09:25:47.791Z,4.50
2023-10-11T09:28:18.359Z,4.80
2023-10-11T09:33:18.639Z,5.20
2023-10-11T09:35:50.760Z,5.60
2023-10-11T09:38:20.096Z,5.40
2023-10-11T09:40:48.001Z,5.00
2023-10-11T09:43:18.796Z,5.00
2023-10-11T09:45:54.459Z,5.60
2023-10-11T09:48:23.442Z,6.10
2023-10-11T09:50:50.511Z,5.90
2023-10-11T09:53:17.248Z,5.30
2023-10-11T09:56:04.780Z,6.10
2023-10-11T09:58:33.549Z,5.80
2023-10-11T10:01:08.932Z,5.10
2023-10-11T10:03:39.066Z,5.60
2023-10-11T10:06:18.893Z,5.40
2023-10-11T10:09:24.843Z,5.00
2023-10-11T10:12:10.781Z,5.70
2023-10-11T10:14:39.508Z,4.70
2023-10-11T10:17:11.379Z,4.60
2023-10-11T10:19:43.781Z,5.40
2023-10-11T10:22:11.081Z,5.00
2023-10-11T10:24:38.014Z,4.80
2023-10-11T10:27:23.611Z,5.20
2023-10-11T10:30:06.171Z,4.20
2023-10-11T10:32:33.639Z,4.20
2023-10-11T10:35:19.076Z,5.10
2023-10-11T10:37:58.522Z,4.90
2023-10-11T10:40:25.896Z,5.40
2023-10-11T10:43:20.949Z,4.80
2023-10-11T10:45:51.252Z,4.70
2023-10-11T10:48:24.680Z,4.80
2023-10-11T10:51:02.448Z,4.90
2023-10-11T10:53:38.220Z,4.70
2023-10-11T10:56:05.417Z,4.80
2023-10-11T10:58:32.075Z,4.60
2023-10-11T11:01:00.205Z,4.30
2023-10-11T11:03:33.612Z,4.60
2023-10-11T11:06:01.656Z,4.80
2023-10-11T11:08:29.224Z,4.00
2023-10-11T11:11:26.147Z,4.70
2023-10-11T11:13:55.315Z,5.20
2023-10-11T11:16:26.673Z,4.60
2023-10-11T11:18:53.543Z,4.60
2023-10-11T11:21:22.876Z,4.30
2023-10-11T11:23:50.908Z,5.00
2023-10-11T11:29:08.811Z,5.60
2023-10-11T11:31:52.438Z,5.20
2023-10-11T11:34:38.941Z,4.40
2023-10-11T11:37:15.612Z,5.00
2023-10-11T11:39:50.370Z,4.80
2023-10-11T11:42:20.758Z,5.30
2023-10-11T11:44:48.137Z,5.50
2023-10-11T11:47:21.793Z,5.20
2023-10-11T11:49:48.540Z,5.30
2023-10-11T11:52:17.606Z,5.30
2023-10-11T11:54:44.318Z,4.90
2023-10-11T11:57:11.084Z,4.50
2023-10-11T11:59:39.264Z,5.30
2023-10-11T12:02:17.414Z,5.50
2023-10-11T12:04:48.735Z,4.70
2023-10-11T12:07:15.713Z,4.70
2023-10-11T12:09:59.690Z,4.50
2023-10-11T12:12:28.607Z,4.90
2023-10-11T12:15:00.499Z,4.30
2023-10-11T12:17:27.320Z,3.90
2023-10-11T12:19:54.085Z,4.40
2023-10-11T12:22:22.641Z,4.30
2023-10-11T12:24:49.265Z,4.90
2023-10-11T12:27:16.294Z,5.10
2023-10-11T12:30:00.379Z,4.70
2023-10-11T12:32:33.821Z,5.30
2023-10-11T12:35:05.342Z,4.90
2023-10-11T12:37:33.680Z,4.80
2023-10-11T12:40:00.555Z,5.00
2023-10-11T12:42:27.294Z,4.20
2023-10-11T12:44:54.129Z,4.70
2023-10-11T12:47:21.165Z,4.50
2023-10-11T12:49:47.891Z,5.50
2023-10-11T12:52:18.639Z,4.70
2023-10-11T12:54:45.370Z,4.80
2023-10-11T12:57:15.848Z,4.60
2023-10-11T12:59:42.488Z,4.70
2023-10-11T13:02:10.751Z,5.20
2023-10-11T13:04:41.750Z,4.90
2023-10-11T13:07:14.053Z,5.80
2023-10-11T13:09:41.142Z,5.20
2023-10-11T13:12:08.886Z,5.00
2023-10-11T13:14:38.657Z,5.00
2023-10-11T13:17:08.502Z,4.80
2023-10-11T13:19:35.110Z,4.80
2023-10-11T13:22:09.978Z,5.90
2023-10-11T13:24:36.636Z,5.10
2023-10-11T13:27:04.813Z,5.00
2023-10-11T13:29:31.456Z,5.40
2023-10-11T13:31:58.568Z,4.70
2023-10-11T13:34:29.329Z,4.90
2023-10-11T13:36:59.646Z,5.20
2023-10-11T13:39:27.118Z,6.00
2023-10-11T13:41:54.640Z,4.90
2023-10-11T13:44:22.643Z,5.20
2023-10-11T13:46:53.550Z,5.50
2023-10-11T13:49:27.563Z,4.90
2023-10-11T13:52:04.225Z,5.60
2023-10-11T13:54:43.376Z,5.00
2023-10-11T13:57:14.594Z,5.30
2023-10-11T13:59:46.376Z,5.30
2023-10-11T14:02:37.145Z,5.50
2023-10-11T14:05:16.363Z,5.40
2023-10-11T14:07:52.330Z,6.00
2023-10-11T14:10:29.069Z,6.00
2023-10-11T14:13:11.229Z,5.20
2023-10-11T14:15:38.517Z,5.20
2023-10-11T14:18:11.821Z,5.60
2023-10-11T14:20:38.515Z,4.70
2023-10-11T14:23:06.416Z,5.90
2023-10-11T14:25:33.117Z,6.00
2023-10-11T14:27:59.743Z,6.10
2023-10-11T14:30:26.416Z,5.50
2023-10-11T14:32:53.086Z,5.90
2023-10-11T14:35:21.706Z,5.50
2023-10-11T14:37:48.522Z,5.50
2023-10-11T14:40:16.036Z,5.20
2023-10-11T14:42:47.092Z,5.40
2023-10-11T14:45:15.162Z,5.30
2023-10-11T14:47:45.822Z,6.20
2023-10-11T14:50:12.512Z,5.00
2023-10-11T14:52:40.430Z,5.80
2023-10-11T14:55:08.025Z,5.90
2023-10-11T14:57:34.867Z,6.30
2023-10-11T15:00:01.963Z,5.00
2023-10-11T15:02:28.829Z,6.00
2023-10-11T15:04:57.391Z,5.60
2023-10-11T15:07:24.277Z,6.30
2023-10-11T15:09:50.882Z,6.20
2023-10-11T15:12:17.676Z,6.60
2023-10-11T15:14:44.335Z,6.70
2023-10-11T15:17:11.742Z,6.10
2023-10-11T15:19:38.461Z,6.50
2023-10-11T15:22:07.121Z,7.30
2023-10-11T15:24:33.843Z,6.10
2023-10-11T15:27:00.511Z,6.60
2023-10-11T15:29:27.078Z,7.60
2023-10-11T15:31:53.768Z,6.50
2023-10-11T15:34:20.655Z,6.10
2023-10-11T15:36:47.458Z,6.90
2023-10-11T15:39:16.502Z,7.10
2023-10-11T15:41:44.452Z,6.40
2023-10-11T15:44:15.808Z,7.40
2023-10-11T15:46:42.398Z,7.20
2023-10-11T15:49:09.001Z,7.10
2023-10-11T15:51:35.631Z,6.50
2023-10-11T15:54:02.300Z,7.50
2023-10-11T15:56:32.598Z,7.10
2023-10-11T15:58:59.824Z,6.60
2023-10-11T16:01:28.111Z,7.20
2023-10-11T16:03:56.352Z,13.60
2023-10-11T16:06:25.225Z,8.10
2023-10-11T16:08:52.107Z,8.80
2023-10-11T16:11:18.737Z,11.80
2023-10-11T16:13:45.616Z,14.50
2023-10-11T16:16:17.234Z,10.50
2023-10-11T16:18:47.742Z,10.70
2023-10-11T16:21:15.166Z,7.10
2023-10-11T16:23:43.462Z,8.40
2023-10-11T16:26:11.439Z,8.10
2023-10-11T16:28:38.317Z,10.70
2023-10-11T16:31:08.339Z,9.40
2023-10-11T16:33:35.167Z,10.10
2023-10-11T16:36:04.520Z,12.10
2023-10-11T16:38:35.184Z,9.10
2023-10-11T16:41:06.702Z,8.90
2023-10-11T16:43:33.988Z,8.70
2023-10-11T16:46:00.654Z,8.80
2023-10-11T16:48:30.309Z,9.50
2023-10-11T16:50:58.681Z,7.90
2023-10-11T16:53:32.532Z,8.70
2023-10-11T16:56:00.942Z,8.70
2023-10-11T16:58:27.868Z,8.90
2023-10-11T17:00:55.326Z,8.10
2023-10-11T17:03:25.527Z,9.30
2023-10-11T17:05:53.072Z,8.40
2023-10-11T17:08:19.757Z,13.90
2023-10-11T17:10:49.453Z,9.40
2023-10-11T17:13:16.545Z,8.50
2023-10-11T17:15:44.395Z,9.90
2023-10-11T17:18:11.305Z,15.60
2023-10-11T17:20:38.405Z,9.80
2023-10-11T17:23:08.174Z,10.30
2023-10-11T17:25:34.797Z,12.40
2023-10-11T17:28:01.724Z,14.90
2023-10-11T17:30:31.938Z,13.00
2023-10-11T17:33:00.319Z,12.70
2023-10-11T17:35:27.610Z,13.20
2023-10-11T17:37:54.814Z,12.30
2023-10-11T17:40:27.657Z,12.20
2023-10-11T17:42:59.149Z,17.00
2023-10-11T17:45:29.771Z,14.20
2023-10-11T17:47:57.058Z,12.60
2023-10-11T17:50:24.031Z,14.00
2023-10-11T17:52:51.232Z,10.00
2023-10-11T17:55:19.372Z,13.80
2023-10-11T17:57:47.077Z,13.40
2023-10-11T18:00:22.983Z,9.30
2023-10-11T18:02:50.643Z,9.70
2023-10-11T18:05:17.981Z,13.10
2023-10-11T18:07:51.151Z,15.60
2023-10-11T18:10:18.493Z,9.60
2023-10-11T18:12:49.180Z,9.90
2023-10-11T18:15:18.780Z,9.40
2023-10-11T18:17:49.746Z,9.60
2023-10-11T18:20:17.551Z,8.40
2023-10-11T18:22:44.952Z,9.10
2023-10-11T18:25:16.861Z,8.30
2023-10-11T18:30:19.999Z,7.70
2023-10-11T18:32:47.338Z,8.10
2023-10-11T18:35:14.073Z,8.70
2023-10-11T18:37:43.140Z,9.20
2023-10-11T18:40:30.993Z,14.00
2023-10-11T18:42:59.581Z,10.30
2023-10-11T18:45:26.490Z,7.80
2023-10-11T18:47:54.039Z,9.50
2023-10-11T18:50:21.563Z,8.90
2023-10-11T18:52:50.259Z,6.20
2023-10-11T18:55:18.826Z,6.30
2023-10-11T18:57:45.953Z,5.50
2023-10-11T19:00:13.040Z,6.90
2023-10-11T19:02:42.307Z,6.50
2023-10-11T19:05:12.324Z,6.30
2023-10-11T19:07:39.903Z,5.00
2023-10-11T19:10:07.172Z,5.60
2023-10-11T19:12:36.520Z,6.00
2023-10-11T19:15:05.587Z,5.70
2023-10-11T19:17:33.263Z,5.40
2023-10-11T19:20:00.522Z,6.30
2023-10-11T19:22:27.295Z,6.00
2023-10-11T19:24:54.947Z,6.00
2023-10-11T19:27:21.675Z,6.10
2023-10-11T19:29:48.640Z,6.20
2023-10-11T19:32:18.980Z,6.10
2023-10-11T19:34:53.278Z,5.80
2023-10-11T19:37:19.852Z,5.00
2023-10-11T19:39:46.564Z,5.70
2023-10-11T19:42:13.620Z,5.90
2023-10-11T19:44:40.289Z,5.10
2023-10-11T19:47:07.444Z,6.40
2023-10-11T19:49:34.100Z,5.80
2023-10-11T19:52:03.126Z,5.10
2023-10-11T19:54:29.838Z,5.40
2023-10-11T19:56:56.648Z,5.20
2023-10-11T19:59:24.124Z,5.60
2023-10-11T20:01:50.859Z,5.60
2023-10-11T20:04:17.720Z,6.20
2023-10-11T20:06:44.710Z,5.50
2023-10-11T20:09:16.480Z,6.20
2023-10-11T20:11:43.286Z,5.10
2023-10-11T20:14:10.324Z,5.60
2023-10-11T20:16:37.506Z,4.90
2023-10-11T20:19:05.118Z,5.80
2023-10-11T20:21:31.763Z,5.50
2023-10-11T20:23:58.384Z,5.70
2023-10-11T20:26:29.706Z,5.30
2023-10-11T20:28:57.401Z,4.80
2023-10-11T20:31:24.606Z,4.80
2023-10-11T20:33:51.390Z,5.40
2023-10-11T20:36:18.724Z,5.80
2023-10-11T20:38:46.506Z,4.80
2023-10-11T20:41:13.441Z,5.40
2023-10-11T20:43:40.571Z,4.50
2023-10-11T20:46:07.956Z,5.20
2023-10-11T20:48:37.703Z,5.20
2023-10-11T20:51:05.480Z,5.40
2023-10-11T20:53:38.517Z,5.80
2023-10-11T20:56:07.344Z,5.30
2023-10-11T20:58:39.271Z,5.70
2023-10-11T21:01:06.183Z,5.20
2023-10-11T21:03:36.106Z,5.50
2023-10-11T21:06:02.811Z,4.80
2023-10-11T21:08:29.675Z,4.90
2023-10-11T21:10:56.310Z,4.90
2023-10-11T21:13:25.886Z,5.60
2023-10-11T21:15:58.756Z,5.20
2023-10-11T21:18:25.702Z,5.50
2023-10-11T21:20:52.600Z,5.30
2023-10-11T21:23:20.896Z,5.60
2023-10-11T21:25:55.588Z,5.10
2023-10-11T21:28:22.728Z,6.10
2023-10-11T21:30:50.373Z,4.90
2023-10-11T21:33:18.053Z,5.20
2023-10-11T21:35:45.202Z,5.40
2023-10-11T21:38:11.925Z,6.20
2023-10-11T21:40:41.688Z,5.80
2023-10-11T21:43:12.036Z,5.10
2023-10-11T21:45:38.956Z,5.30
2023-10-11T21:48:07.170Z,5.20
2023-10-11T21:50:34.016Z,5.70
2023-10-11T21:53:00.936Z,5.30
2023-10-11T21:55:27.948Z,4.70
2023-10-11T21:57:57.721Z,5.40
2023-10-11T22:00:43.514Z,5.70
2023-10-11T22:03:10.587Z,5.70
2023-10-11T22:05:37.476Z,5.50
2023-10-11T22:08:05.964Z,5.20
2023-10-11T22:10:35.612Z,4.70
2023-10-11T22:13:04.517Z,4.80
2023-10-11T22:15:31.196Z,5.30
2023-10-11T22:17:58.058Z,5.40
2023-10-11T22:20:25.900Z,5.40
2023-10-11T22:22:52.738Z,5.90
2023-10-11T22:25:22.065Z,6.00
2023-10-11T22:27:49.148Z,6.20
2023-10-11T22:30:21.505Z,5.10
2023-10-11T22:32:54.297Z,6.00
2023-10-11T22:35:23.391Z,5.30
2023-10-11T22:37:50.666Z,5.70
2023-10-11T22:40:17.622Z,5.50
2023-10-11T22:42:44.885Z,5.80
2023-10-11T22:45:12.285Z,5.80
2023-10-11T22:47:39.281Z,5.00
2023-10-11T22:50:06.830Z,6.10
2023-10-11T22:52:34.802Z,5.20
2023-10-11T22:55:08.542Z,6.00
2023-10-11T22:57:36.845Z,5.50
2023-10-11T23:00:05.107Z,6.50
2023-10-11T23:02:34.757Z,5.40
2023-10-11T23:05:06.779Z,5.30
2023-10-11T23:07:34.324Z,5.70
2023-10-11T23:10:00.985Z,5.70
2023-10-11T23:12:27.912Z,5.50
2023-10-11T23:14:55.462Z,5.70
2023-10-11T23:17:23.336Z,5.60
2023-10-11T23:19:51.767Z,6.20
2023-10-11T23:22:24.510Z,5.40
2023-10-11T23:24:54.005Z,5.90
2023-10-11T23:27:28.657Z,6.00
2023-10-11T23:29:58.709Z,5.90
2023-10-11T23:32:26.784Z,5.60
2023-10-11T23:34:56.834Z,6.30
2023-10-11T23:37:30.241Z,5.80
2023-10-11T23:40:33.193Z,5.80
2023-10-11T23:43:00.347Z,5.80
2023-10-11T23:45:32.672Z,5.40
2023-10-11T23:47:59.338Z,6.00
2023-10-11T23:50:35.847Z,6.10
2023-10-11T23:53:15.291Z,6.00
2023-10-11T23:55:42.233Z,5.70
2023-10-11T23:58:13.429Z,6.00
